Time;durP1;ratioP1;P1;durP2;ratioP2;P2;SDS_P1;SDS_P2;PMS_P1;PMS_P2;Temp;Humidity;BMP_temperature;BMP_pressure;BME280_temperature;BME280_humidity;BME280_pressure;Samples;Min_cycle;Max_cycle;Signal;HPM_P1;HPM_P2
2022/12/03 00:00:56;;;;;;;46.45;21.80;;;;;;;2.55;99.42;102419.81;4974712;28;20026;-75
2022/12/03 00:03:22;;;;;;;48.83;20.35;;;;;;;2.67;98.97;102413.91;4957539;28;20037;-75
2022/12/03 00:05:47;;;;;;;46.65;22.23;;;;;;;2.68;99.05;102411.19;4973823;28;20042;-75
2022/12/03 00:08:13;;;;;;;42.95;21.05;;;;;;;2.62;99.11;102415.94;4957922;28;20380;-75
2022/12/03 00:10:38;;;;;;;45.53;20.48;;;;;;;2.77;98.66;102419.72;4957798;28;20054;-75
2022/12/03 00:13:03;;;;;;;48.15;21.58;;;;;;;2.61;99.32;102408.84;4959078;28;20038;-75
2022/12/03 00:23:06;;;;;;;43.70;20.92;;;;;;;2.63;98.51;102396.28;4991219;28;20454;-74
2022/12/03 00:25:32;;;;;;;49.67;21.45;;;;;;;2.55;98.24;102406.47;4980775;28;20042;-75
2022/12/03 00:27:57;;;;;;;48.90;21.63;;;;;;;2.60;98.83;102407.09;5011763;28;20042;-74
2022/12/03 00:30:23;;;;;;;39.25;19.92;;;;;;;2.62;98.49;102410.59;4994529;28;20442;-75
2022/12/03 00:32:48;;;;;;;44.15;20.90;;;;;;;2.54;98.31;102402.03;4994117;28;20029;-74
2022/12/03 00:35:14;;;;;;;47.03;20.77;;;;;;;2.58;98.00;102409.84;4994422;28;20022;-75
2022/12/03 00:37:39;;;;;;;47.38;21.10;;;;;;;2.57;98.38;102407.25;4994111;28;20116;-75
2022/12/03 00:40:05;;;;;;;47.03;21.17;;;;;;;2.64;98.43;102409.56;4994785;28;20033;-75
2022/12/03 00:42:31;;;;;;;50.45;22.88;;;;;;;2.60;98.49;102412.44;4993139;28;20033;-74
2022/12/03 00:44:56;;;;;;;42.88;21.77;;;;;;;2.64;97.76;102408.69;4994598;28;20045;-75
2022/12/03 00:47:22;;;;;;;49.45;22.48;;;;;;;2.63;98.28;102407.84;5007025;28;20032;-75
2022/12/03 00:49:47;;;;;;;50.38;22.88;;;;;;;2.51;98.19;102400.38;4994348;28;20509;-75
2022/12/03 00:52:12;;;;;;;51.28;24.17;;;;;;;2.37;99.14;102406.31;4994003;28;20037;-73
2022/12/03 00:54:38;;;;;;;47.43;21.97;;;;;;;2.37;99.45;102400.13;4994595;28;20037;-75
2022/12/03 00:57:03;;;;;;;45.90;22.15;;;;;;;2.47;98.96;102400.56;4994515;28;20061;-74
2022/12/03 00:59:29;;;;;;;54.00;22.58;;;;;;;2.44;99.67;102397.09;4986244;28;20049;-74
2022/12/03 01:01:54;;;;;;;50.00;23.00;;;;;;;2.14;100.00;102406.44;5010117;28;20033;-74
2022/12/03 01:04:20;;;;;;;54.20;23.35;;;;;;;2.31;99.99;102411.06;5012178;28;20045;-75
2022/12/03 01:06:45;;;;;;;48.07;22.20;;;;;;;2.33;99.96;102417.22;4994064;28;20105;-74
2022/12/03 01:09:10;;;;;;;48.08;22.92;;;;;;;2.34;99.27;102417.13;4994847;28;20033;-74
2022/12/03 01:11:40;;;;;;;47.92;22.25;;;;;;;2.30;99.94;102420.91;4993591;28;20041;-74
2022/12/03 01:14:12;;;;;;;50.55;22.40;;;;;;;2.21;99.88;102415.94;4994145;28;20033;-74
2022/12/03 01:16:37;;;;;;;50.30;23.45;;;;;;;2.10;100.00;102412.88;5011126;28;20068;-74
2022/12/03 01:19:04;;;;;;;51.80;23.23;;;;;;;2.09;100.00;102414.69;4994497;28;20069;-74
2022/12/03 01:21:30;;;;;;;55.85;24.50;;;;;;;2.20;99.86;102418.69;4977435;28;20110;-74
2022/12/03 01:23:56;;;;;;;57.80;26.10;;;;;;;1.95;100.00;102413.50;4994313;28;20040;-74
2022/12/03 01:26:21;;;;;;;51.63;22.63;;;;;;;1.90;100.00;102417.28;4994230;28;20113;-74
2022/12/03 01:28:47;;;;;;;54.60;23.95;;;;;;;1.98;100.00;102418.75;4986272;28;20418;-74
2022/12/03 01:33:56;;;;;;;56.75;24.25;;;;;;;2.12;99.78;102421.69;5004862;28;20040;-74
2022/12/03 01:36:22;;;;;;;61.53;24.63;;;;;;;2.14;99.44;102419.81;4994326;28;20030;-73
2022/12/03 01:38:50;;;;;;;51.80;22.27;;;;;;;1.95;100.00;102424.19;4993971;28;20034;-74
2022/12/03 01:41:17;;;;;;;59.42;24.98;;;;;;;1.90;100.00;102433.28;5010840;28;20036;-74
2022/12/03 01:43:43;;;;;;;56.25;24.58;;;;;;;2.04;99.99;102423.81;4994193;28;20073;-74
2022/12/03 01:46:12;;;;;;;53.75;24.55;;;;;;;2.04;100.00;102418.50;4993968;28;20022;-74
2022/12/03 01:48:37;;;;;;;60.13;26.02;;;;;;;2.14;99.32;102419.81;4985883;28;20045;-74
2022/12/03 01:51:03;;;;;;;57.17;24.83;;;;;;;2.06;100.00;102427.28;4989647;28;20030;-74
2022/12/03 01:53:29;;;;;;;60.67;26.08;;;;;;;1.85;100.00;102424.59;5010978;28;20065;-74
2022/12/03 01:55:54;;;;;;;60.92;26.35;;;;;;;1.79;100.00;102423.97;5011081;28;20115;-74
2022/12/03 01:58:25;;;;;;;57.40;25.50;;;;;;;1.67;100.00;102422.69;4994389;28;20139;-74
2022/12/03 02:00:50;;;;;;;50.27;23.67;;;;;;;1.81;100.00;102422.97;5003178;28;20041;-74
2022/12/03 02:03:19;;;;;;;65.88;27.65;;;;;;;1.87;99.63;102430.72;4993435;28;20021;-74
2022/12/03 02:05:45;;;;;;;58.80;23.53;;;;;;;1.94;99.62;102427.81;5001692;28;20112;-75
2022/12/03 02:08:36;;;;;;;60.00;25.43;;;;;;;1.87;99.66;102425.41;4987339;28;20074;-74
2022/12/03 02:11:13;;;;;;;60.28;25.70;;;;;;;1.90;98.66;102432.44;5004484;28;20168;-74
2022/12/03 02:13:41;;;;;;;60.33;26.83;;;;;;;1.73;99.79;102425.09;4993481;28;20125;-74
2022/12/03 02:16:07;;;;;;;57.67;24.80;;;;;;;1.81;99.28;102428.31;4994653;28;20030;-75
2022/12/03 02:18:33;;;;;;;61.10;25.27;;;;;;;1.90;98.76;102422.63;4987920;28;20030;-74
2022/12/03 02:21:10;;;;;;;65.47;26.03;;;;;;;1.94;98.76;102425.13;4983946;28;20101;-74
2022/12/03 02:23:51;;;;;;;60.38;26.48;;;;;;;1.76;98.94;102424.09;4993256;28;20069;-74
2022/12/03 02:26:17;;;;;;;64.07;26.13;;;;;;;1.73;99.40;102430.44;4992132;28;20029;-74
2022/12/03 02:28:42;;;;;;;57.60;22.93;;;;;;;1.79;98.58;102422.19;5013903;28;20036;-74
2022/12/03 02:31:08;;;;;;;62.55;26.52;;;;;;;1.63;99.30;102429.09;4996207;28;20052;-74
2022/12/03 02:33:33;;;;;;;68.30;28.05;;;;;;;1.71;98.57;102432.31;4995953;28;20038;-74
2022/12/03 02:35:59;;;;;;;66.27;26.80;;;;;;;1.62;98.74;102428.19;4989430;28;20064;-74
2022/12/03 02:38:27;;;;;;;60.55;25.88;;;;;;;1.64;99.25;102428.16;4996984;28;20390;-74
2022/12/03 02:40:56;;;;;;;65.30;26.03;;;;;;;1.74;98.14;102426.84;4984822;28;20026;-74
2022/12/03 02:43:24;;;;;;;58.60;24.90;;;;;;;1.75;98.74;102427.69;5002146;28;20030;-74
2022/12/03 02:45:52;;;;;;;66.00;27.57;;;;;;;1.59;98.83;102422.13;4996226;28;20541;-74
2022/12/03 02:48:19;;;;;;;63.73;26.87;;;;;;;1.52;98.85;102420.66;4996510;28;20029;-75
2022/12/03 02:50:49;;;;;;;57.23;24.93;;;;;;;1.66;98.04;102425.44;4995903;28;20037;-74
2022/12/03 02:53:19;;;;;;;66.67;26.27;;;;;;;1.56;98.74;102422.25;5013386;28;20112;-74
2022/12/03 02:55:46;;;;;;;64.93;26.83;;;;;;;1.47;99.07;102422.63;5013686;28;20069;-74
2022/12/03 02:58:12;;;;;;;66.17;25.30;;;;;;;1.51;99.18;102418.91;4995959;28;20028;-74
2022/12/03 03:00:38;;;;;;;66.53;26.57;;;;;;;1.43;98.84;102426.34;4988266;28;20045;-74
2022/12/03 03:03:06;;;;;;;59.80;25.73;;;;;;;1.34;99.94;102423.13;5013265;28;20026;-74
2022/12/03 03:05:33;;;;;;;57.63;24.23;;;;;;;1.38;99.55;102418.53;4995840;28;20042;-74
2022/12/03 03:07:59;;;;;;;68.77;25.90;;;;;;;1.58;99.43;102426.59;4996433;28;20247;-74
2022/12/03 03:10:26;;;;;;;62.93;26.70;;;;;;;1.43;99.18;102421.88;5013495;28;20040;-74
2022/12/03 03:12:53;;;;;;;63.90;25.33;;;;;;;1.39;99.97;102435.41;4987999;28;20029;-74
2022/12/03 03:15:20;;;;;;;57.50;23.70;;;;;;;1.48;99.44;102424.34;4995791;28;20025;-74
2022/12/03 03:17:46;;;;;;;62.97;26.27;;;;;;;1.46;99.52;102415.56;5004965;28;20033;-74
2022/12/03 03:20:12;;;;;;;59.80;24.93;;;;;;;1.55;99.24;102415.16;5012985;28;20114;-74
2022/12/03 03:22:40;;;;;;;63.67;27.47;;;;;;;1.39;99.44;102416.75;5012036;28;20030;-74
2022/12/03 03:25:09;;;;;;;57.80;27.53;;;;;;;1.50;99.25;102422.50;4987884;28;20041;-74
2022/12/03 03:27:35;;;;;;;59.00;25.70;;;;;;;1.46;99.95;102420.91;4994278;28;20033;-75
2022/12/03 03:30:02;;;;;;;62.37;25.57;;;;;;;1.45;99.48;102413.81;4987682;28;20033;-74
2022/12/03 03:32:29;;;;;;;64.23;26.07;;;;;;;1.43;99.52;102415.66;4990984;28;20064;-74
2022/12/03 03:34:55;;;;;;;62.70;25.47;;;;;;;1.38;99.93;102409.66;4979677;28;20132;-74
2022/12/03 03:37:22;;;;;;;67.47;27.23;;;;;;;1.44;99.59;102401.41;4980453;28;20088;-74
2022/12/03 03:39:48;;;;;;;65.80;26.27;;;;;;;1.40;99.54;102403.31;5012243;28;20037;-74
2022/12/03 03:42:13;;;;;;;59.80;27.07;;;;;;;1.36;99.83;102404.38;4995038;28;20022;-74
2022/12/03 03:44:39;;;;;;;57.20;25.83;;;;;;;1.50;99.28;102411.81;4993581;28;20036;-74
2022/12/03 03:47:05;;;;;;;59.97;24.90;;;;;;;1.45;99.11;102397.81;4997872;28;20026;-74
2022/12/03 03:49:30;;;;;;;62.97;26.27;;;;;;;1.43;99.48;102397.84;4994787;28;20099;-74
2022/12/03 03:51:55;;;;;;;61.43;25.97;;;;;;;1.55;99.13;102399.16;4986840;28;20022;-74
2022/12/03 03:54:22;;;;;;;63.90;26.30;;;;;;;1.31;99.67;102396.56;5012567;28;20227;-74
2022/12/03 03:56:47;;;;;;;65.67;25.30;;;;;;;1.46;99.34;102399.53;4994622;28;20033;-74
2022/12/03 03:59:13;;;;;;;58.13;24.63;;;;;;;1.32;99.99;102390.28;5012923;28;20366;-74
2022/12/03 04:01:38;;;;;;;60.13;25.77;;;;;;;1.49;99.37;102384.25;4986292;28;20121;-74
2022/12/03 04:04:11;;;;;;;61.17;26.00;;;;;;;1.50;99.17;102390.47;5007834;28;20144;-74
2022/12/03 04:06:37;;;;;;;69.00;26.03;;;;;;;1.49;98.94;102378.03;4985009;28;20036;-73
2022/12/03 04:09:02;;;;;;;55.50;24.43;;;;;;;1.39;99.31;102384.72;4995199;28;20113;-74
2022/12/03 04:14:12;;;;;;;68.00;25.57;;;;;;;1.47;99.27;102395.94;5012365;28;20222;-74
2022/12/03 04:16:37;;;;;;;60.10;25.23;;;;;;;1.43;99.31;102399.66;4994600;28;20034;-74
2022/12/03 04:19:02;;;;;;;67.23;26.73;;;;;;;1.26;99.40;102393.22;4994949;28;20057;-74
2022/12/03 04:24:19;;;;;;;63.85;25.83;;;;;;;1.46;99.79;102394.22;4992109;28;20048;-74
2022/12/03 04:29:28;;;;;;;68.13;27.53;;;;;;;1.39;99.75;102395.38;5012157;28;20203;-74
2022/12/03 04:37:21;;;;;;;61.37;25.03;;;;;;;1.19;100.00;102396.19;5000481;28;20022;-74
2022/12/03 04:39:47;;;;;;;67.13;27.57;;;;;;;1.31;100.00;102406.38;5002640;28;20095;-74
2022/12/03 04:42:12;;;;;;;70.07;25.40;;;;;;;1.29;100.00;102387.72;4997491;28;20027;-75
2022/12/03 04:44:38;;;;;;;67.10;28.07;;;;;;;1.05;100.00;102394.06;5009675;28;20034;-75
2022/12/03 04:47:12;;;;;;;66.23;25.73;;;;;;;1.17;100.00;102393.56;4994085;28;20062;-75
2022/12/03 04:49:49;;;;;;;64.03;25.60;;;;;;;1.24;99.74;102389.75;5007999;28;20022;-75
2022/12/03 04:52:17;;;;;;;69.57;27.27;;;;;;;1.11;99.63;102388.47;4993368;28;20061;-75
2022/12/03 04:54:42;;;;;;;66.47;26.43;;;;;;;1.10;99.96;102386.72;4994219;28;20057;-75
2022/12/03 04:57:09;;;;;;;67.57;27.13;;;;;;;1.07;100.00;102381.53;4994285;28;20104;-75
2022/12/03 04:59:35;;;;;;;63.93;26.03;;;;;;;1.13;99.82;102391.94;4986113;28;20026;-75
2022/12/03 05:02:01;;;;;;;72.23;29.13;;;;;;;1.04;99.91;102381.63;5010716;28;20058;-75
2022/12/03 05:04:27;;;;;;;71.93;28.13;;;;;;;1.03;99.87;102390.56;4986942;28;20120;-75
2022/12/03 05:06:52;;;;;;;72.00;28.97;;;;;;;1.13;99.65;102381.28;4992820;28;20157;-75
2022/12/03 05:09:18;;;;;;;66.67;27.13;;;;;;;1.24;98.70;102388.84;4994520;28;20033;-75
2022/12/03 05:11:43;;;;;;;69.43;26.13;;;;;;;1.11;99.17;102393.81;4985421;28;20050;-75
2022/12/03 05:14:09;;;;;;;66.03;26.03;;;;;;;1.17;98.83;102398.88;5011607;28;20018;-75
2022/12/03 05:16:35;;;;;;;63.77;26.27;;;;;;;1.18;98.68;102389.97;4993786;28;20029;-75
2022/12/03 05:19:01;;;;;;;68.23;26.60;;;;;;;1.25;98.76;102394.13;5010687;28;20072;-75
2022/12/03 05:21:26;;;;;;;79.90;28.93;;;;;;;1.08;98.48;102388.59;4998291;28;20028;-75
2022/12/03 05:23:52;;;;;;;63.53;26.33;;;;;;;1.10;98.62;102376.06;5011146;28;20064;-75
2022/12/03 05:26:17;;;;;;;75.90;29.10;;;;;;;1.01;99.04;102387.09;4993627;28;20077;-75
2022/12/03 05:28:43;;;;;;;68.77;26.30;;;;;;;1.07;98.34;102381.53;4993501;28;20088;-74
2022/12/03 05:31:08;;;;;;;83.00;28.83;;;;;;;1.24;98.90;102381.75;4993656;28;20026;-75
2022/12/03 05:33:34;;;;;;;65.53;26.00;;;;;;;1.14;98.12;102372.34;4993583;28;20109;-74
2022/12/03 05:35:59;;;;;;;68.43;26.70;;;;;;;1.14;97.73;102371.47;5003319;28;20041;-74
2022/12/03 05:38:25;;;;;;;72.73;27.23;;;;;;;1.17;98.14;102372.22;4993601;28;20028;-74
2022/12/03 05:40:50;;;;;;;64.17;27.50;;;;;;;1.10;98.36;102376.06;4993503;28;20037;-74
2022/12/03 05:43:15;;;;;;;77.83;29.67;;;;;;;0.93;98.42;102375.88;5010925;28;20448;-75
2022/12/03 05:45:43;;;;;;;62.40;26.97;;;;;;;1.13;98.38;102365.28;4998254;28;20029;-74
2022/12/03 05:48:11;;;;;;;74.53;27.93;;;;;;;1.20;98.06;102372.09;5002377;28;20030;-74
2022/12/03 05:50:38;;;;;;;74.27;28.50;;;;;;;1.19;97.78;102381.03;4999615;28;20053;-74
2022/12/03 05:53:04;;;;;;;65.30;27.07;;;;;;;1.22;97.63;102375.56;4997134;28;20029;-74
2022/12/03 05:55:30;;;;;;;65.03;27.27;;;;;;;1.13;97.58;102378.63;4997561;28;20026;-74
2022/12/03 05:57:56;;;;;;;61.10;25.60;;;;;;;1.08;98.16;102377.91;5014636;28;20026;-74
2022/12/03 06:00:27;;;;;;;65.33;27.53;;;;;;;1.16;97.31;102375.81;4997650;28;20029;-74
2022/12/03 06:02:53;;;;;;;73.65;26.77;;;;;;;1.19;97.41;102377.50;5014765;28;20034;-74
2022/12/03 06:05:19;;;;;;;63.13;25.67;;;;;;;1.11;97.17;102388.47;5009142;28;20037;-74
2022/12/03 06:07:46;;;;;;;67.57;26.43;;;;;;;1.02;97.50;102372.81;5004168;28;20033;-74
2022/12/03 06:10:14;;;;;;;65.83;26.90;;;;;;;1.10;96.87;102370.72;4997505;28;20036;-75
2022/12/03 06:12:40;;;;;;;61.07;26.30;;;;;;;1.02;96.86;102368.34;4996782;28;20080;-74
2022/12/03 06:15:06;;;;;;;65.57;26.47;;;;;;;0.97;96.97;102375.66;4997557;28;20046;-74
2022/12/03 06:17:32;;;;;;;65.63;27.73;;;;;;;0.92;97.72;102371.47;5046035;23;20051;-75
2022/12/03 06:19:58;;;;;;;66.20;26.43;;;;;;;1.09;97.02;102374.31;4975639;28;20037;-75
2022/12/03 06:22:23;;;;;;;66.43;26.87;;;;;;;0.78;96.79;102363.97;4975736;28;20026;-75
2022/12/03 06:24:49;;;;;;;63.70;27.70;;;;;;;0.86;97.13;102371.69;4977438;28;20033;-75
2022/12/03 06:27:15;;;;;;;65.80;26.57;;;;;;;0.89;97.17;102358.22;4978465;28;20026;-75
2022/12/03 06:29:40;;;;;;;62.40;26.23;;;;;;;0.93;96.97;102351.88;4990415;28;20116;-75
2022/12/03 06:32:05;;;;;;;69.40;27.47;;;;;;;0.80;97.08;102357.66;4998053;28;20052;-75
2022/12/03 06:34:31;;;;;;;65.80;28.87;;;;;;;0.64;97.28;102351.16;4997608;28;20033;-75
2022/12/03 06:36:56;;;;;;;63.53;27.00;;;;;;;0.58;97.16;102362.06;4997078;28;20037;-75
2022/12/03 06:39:21;;;;;;;66.33;29.77;;;;;;;0.59;97.42;102358.50;4999722;28;20109;-75
2022/12/03 06:41:47;;;;;;;66.13;26.30;;;;;;;0.75;97.13;102354.31;4977871;28;20124;-75
2022/12/03 06:44:13;;;;;;;69.20;27.87;;;;;;;0.47;97.76;102364.28;4977746;28;20540;-75
2022/12/03 06:46:38;;;;;;;76.10;28.23;;;;;;;0.57;98.21;102360.31;4978000;28;20102;-75
2022/12/03 06:49:04;;;;;;;67.10;26.90;;;;;;;0.70;97.17;102361.59;4993838;28;20068;-75
2022/12/03 06:51:29;;;;;;;72.53;28.83;;;;;;;0.89;96.48;102356.44;4977623;28;20089;-75
2022/12/03 06:53:54;;;;;;;71.43;28.53;;;;;;;0.73;96.85;102361.50;4977431;28;20026;-75
2022/12/03 06:56:20;;;;;;;69.33;28.63;;;;;;;0.75;97.25;102364.97;4994039;28;20026;-75
2022/12/03 06:58:46;;;;;;;80.47;29.80;;;;;;;0.78;97.34;102364.88;4978029;28;20026;-75
2022/12/03 07:01:11;;;;;;;66.50;28.20;;;;;;;0.71;97.19;102368.66;4977134;28;20027;-75
2022/12/03 07:03:36;;;;;;;67.57;27.93;;;;;;;0.79;96.85;102366.59;4992698;28;20117;-75
2022/12/03 07:06:02;;;;;;;67.20;27.40;;;;;;;0.90;96.09;102365.28;4976905;28;20034;-75
2022/12/03 07:08:27;;;;;;;68.13;27.03;;;;;;;0.67;97.16;102361.72;4976747;28;20030;-75
2022/12/03 07:10:53;;;;;;;62.77;27.10;;;;;;;0.83;97.10;102367.34;5003701;28;20030;-75
2022/12/03 07:13:19;;;;;;;68.70;27.80;;;;;;;0.90;97.00;102376.84;4996148;28;20114;-75
2022/12/03 07:15:44;;;;;;;71.47;31.40;;;;;;;0.93;96.76;102373.19;4995766;28;20040;-75
2022/12/03 07:18:10;;;;;;;79.73;31.67;;;;;;;0.92;96.43;102366.13;4996144;28;20038;-75
2022/12/03 07:20:35;;;;;;;65.50;29.03;;;;;;;1.02;96.83;102372.81;5006195;28;20029;-75
2022/12/03 07:23:00;;;;;;;73.00;29.47;;;;;;;0.71;96.39;102366.00;4957847;28;20027;-75
2022/12/03 07:25:26;;;;;;;64.53;26.27;;;;;;;0.62;97.52;102376.16;4957052;28;20046;-75
2022/12/03 07:27:51;;;;;;;68.73;29.10;;;;;;;0.49;98.25;102370.41;4957011;28;20161;-75
2022/12/03 07:30:17;;;;;;;70.97;28.60;;;;;;;0.46;97.77;102368.75;4981999;28;20053;-74
2022/12/03 07:32:43;;;;;;;71.43;29.23;;;;;;;0.80;97.02;102373.66;4979248;28;20027;-75
2022/12/03 07:35:08;;;;;;;72.47;30.47;;;;;;;0.82;96.80;102366.47;4976506;28;20045;-75
2022/12/03 07:37:34;;;;;;;65.63;29.10;;;;;;;0.85;97.01;102361.94;4975989;28;20022;-75
2022/12/03 07:39:59;;;;;;;72.57;28.77;;;;;;;0.70;97.36;102366.94;4976971;28;20038;-75
2022/12/03 07:42:25;;;;;;;70.33;29.90;;;;;;;0.70;96.74;102361.59;4975814;28;20027;-75
2022/12/03 07:44:50;;;;;;;71.77;29.50;;;;;;;0.88;96.20;102369.84;4976224;28;20085;-75
2022/12/03 07:47:16;;;;;;;64.20;27.83;;;;;;;0.92;96.76;102360.78;4975851;28;20037;-75
2022/12/03 07:49:42;;;;;;;75.20;29.07;;;;;;;1.19;95.96;102362.38;4976242;28;20027;-75
2022/12/03 07:52:07;;;;;;;68.87;28.90;;;;;;;0.94;96.01;102364.25;4975955;28;20025;-75
2022/12/03 07:54:33;;;;;;;74.87;30.27;;;;;;;0.99;96.55;102367.63;4993636;28;20027;-75
2022/12/03 07:56:58;;;;;;;83.20;29.50;;;;;;;1.19;95.70;102359.69;4976061;28;20120;-75
2022/12/03 07:59:24;;;;;;;68.70;28.30;;;;;;;0.95;96.34;102360.66;4993894;28;20033;-75
2022/12/03 08:01:49;;;;;;;68.93;28.43;;;;;;;0.94;96.33;102364.25;4975566;28;20442;-75
2022/12/03 08:04:17;;;;;;;77.53;30.47;;;;;;;0.92;96.31;102358.13;4976245;28;20031;-75
2022/12/03 08:06:44;;;;;;;76.13;30.47;;;;;;;1.05;96.21;102351.38;4993281;28;20057;-75
2022/12/03 08:09:10;;;;;;;67.87;26.80;;;;;;;0.99;96.68;102356.97;4993792;28;20065;-75
2022/12/03 08:11:35;;;;;;;71.90;30.87;;;;;;;1.03;95.87;102347.88;4975853;28;20053;-75
2022/12/03 08:14:06;;;;;;;76.17;28.27;;;;;;;1.17;95.84;102348.19;4975355;28;20026;-75
2022/12/03 08:16:35;;;;;;;71.32;25.80;;;;;;;1.09;95.84;102348.50;4975198;28;20041;-75
2022/12/03 08:19:01;;;;;;;74.28;30.10;;;;;;;1.17;95.33;102350.88;4991931;28;20029;-75
2022/12/03 08:21:33;;;;;;;73.27;30.40;;;;;;;1.21;95.34;102357.81;4975819;28;20062;-75
2022/12/03 08:24:11;;;;;;;75.73;31.57;;;;;;;1.32;95.42;102354.75;4993241;28;20041;-75
2022/12/03 08:26:37;;;;;;;81.53;29.93;;;;;;;1.47;95.13;102358.56;4992093;28;20097;-76
2022/12/03 08:29:08;;;;;;;81.97;33.20;;;;;;;1.58;94.52;102345.66;4975705;28;20050;-76
2022/12/03 08:31:33;;;;;;;74.53;29.65;;;;;;;1.61;94.49;102345.50;4991752;28;20026;-75
2022/12/03 08:34:12;;;;;;;73.43;29.25;;;;;;;1.69;94.81;102343.38;4992472;28;20034;-74
2022/12/03 08:36:37;;;;;;;79.97;31.05;;;;;;;1.73;93.99;102337.00;4967740;28;20167;-73
2022/12/03 08:39:25;;;;;;;73.47;29.33;;;;;;;1.74;94.01;102346.72;4999959;28;20508;-73
2022/12/03 08:44:45;;;;;;;62.80;26.88;;;;;;;1.60;94.87;102338.44;4986034;28;20092;-74
2022/12/03 08:47:21;;;;;;;65.53;28.60;;;;;;;1.48;94.66;102353.16;4963164;28;20019;-71
2022/12/03 08:49:54;;;;;;;77.05;28.13;;;;;;;1.64;94.28;102340.06;4974533;28;20491;-74
2022/12/03 08:52:20;;;;;;;72.50;29.95;;;;;;;1.63;93.97;102338.34;4959511;28;20069;-76
2022/12/03 08:54:51;;;;;;;77.32;30.33;;;;;;;1.77;93.74;102332.41;4971830;28;20054;-74
2022/12/03 08:57:28;;;;;;;70.25;29.02;;;;;;;1.89;92.93;102330.06;4962815;28;20021;-74
2022/12/03 08:59:59;;;;;;;67.25;28.38;;;;;;;1.96;93.48;102324.47;4955504;28;20035;-73
2022/12/03 09:02:33;;;;;;;78.13;31.20;;;;;;;1.89;93.08;102330.06;4966464;28;20019;-74
2022/12/03 09:05:11;;;;;;;76.35;30.33;;;;;;;1.96;92.56;102319.13;4969744;28;20380;-73
2022/12/03 09:07:37;;;;;;;71.90;29.58;;;;;;;2.06;92.43;102320.44;4965210;28;20029;-72
2022/12/03 09:10:02;;;;;;;66.07;28.00;;;;;;;2.20;91.56;102328.69;4974313;28;20026;-72
2022/12/03 09:12:28;;;;;;;72.53;28.95;;;;;;;2.10;91.86;102322.03;5000224;28;20077;-72
2022/12/03 09:14:53;;;;;;;71.07;28.33;;;;;;;2.24;91.91;102314.28;4971308;28;20085;-72
2022/12/03 09:17:18;;;;;;;68.90;26.75;;;;;;;2.45;90.92;102313.28;4961829;28;20030;-70
2022/12/03 09:19:44;;;;;;;67.90;29.13;;;;;;;2.29;91.21;102317.59;4945810;28;20029;-71
2022/12/03 09:22:10;;;;;;;64.38;27.30;;;;;;;2.38;90.09;102317.19;4960824;28;20036;-72
2022/12/03 09:24:36;;;;;;;63.10;27.95;;;;;;;2.78;89.23;102314.47;4974326;28;20038;-71
2022/12/03 09:27:02;;;;;;;67.20;26.67;;;;;;;2.90;88.84;102313.88;4968614;28;20542;-72
2022/12/03 09:29:27;;;;;;;60.22;24.10;;;;;;;2.76;89.37;102303.84;4967788;28;20014;-72
2022/12/03 09:31:52;;;;;;;63.13;28.45;;;;;;;2.90;88.89;102308.53;4972145;28;20022;-73
2022/12/03 09:34:18;;;;;;;57.53;24.98;;;;;;;2.81;88.84;102309.84;4999179;28;20022;-73
2022/12/03 09:36:43;;;;;;;60.55;25.60;;;;;;;2.76;88.77;102301.16;4979932;28;20088;-71
2022/12/03 09:39:09;;;;;;;63.55;27.00;;;;;;;2.87;88.27;102309.56;5003146;28;20037;-73
2022/12/03 09:41:34;;;;;;;65.82;27.92;;;;;;;2.55;88.37;102304.84;4966178;28;20022;-71
2022/12/03 09:44:00;;;;;;;63.28;26.98;;;;;;;2.62;88.80;102303.63;4968977;28;20069;-72
2022/12/03 09:46:26;;;;;;;63.25;26.17;;;;;;;2.50;89.76;102304.19;4969196;28;20041;-75
2022/12/03 09:48:51;;;;;;;64.47;27.55;;;;;;;2.72;89.23;102310.25;4958637;28;20439;-73
2022/12/03 09:51:19;;;;;;;60.85;25.88;;;;;;;2.88;88.12;102305.06;4981318;28;20073;-72
2022/12/03 09:54:02;;;;;;;59.22;25.73;;;;;;;2.98;88.08;102309.88;4936219;28;20058;-72
2022/12/03 09:56:28;;;;;;;59.60;27.63;;;;;;;2.86;88.25;102305.13;4960959;28;20018;-75
2022/12/03 09:58:53;;;;;;;64.63;26.88;;;;;;;2.82;87.77;102297.34;4965249;28;20054;-74
2022/12/03 10:01:19;;;;;;;58.22;26.08;;;;;;;2.62;88.50;102290.25;4964862;28;20093;-72
2022/12/03 10:03:51;;;;;;;62.85;25.90;;;;;;;2.76;88.72;102290.47;4960048;28;20030;-74
2022/12/03 10:06:22;;;;;;;62.47;25.02;;;;;;;2.61;88.47;102291.19;4989797;28;20049;-71
2022/12/03 10:08:52;;;;;;;59.13;24.92;;;;;;;2.74;88.25;102287.00;4968338;28;20022;-73
2022/12/03 10:11:20;;;;;;;58.95;25.30;;;;;;;2.43;90.06;102293.78;4971394;28;20061;-72
2022/12/03 10:13:45;;;;;;;54.35;24.23;;;;;;;2.56;88.90;102293.22;4972947;28;20018;-73
2022/12/03 10:16:14;;;;;;;63.22;25.25;;;;;;;2.61;88.30;102281.38;4994757;28;20037;-73
2022/12/03 10:18:43;;;;;;;57.22;26.13;;;;;;;2.56;88.52;102279.84;4965286;28;20125;-71
2022/12/03 10:21:18;;;;;;;62.72;24.75;;;;;;;2.70;88.33;102278.25;4970596;28;20105;-73
2022/12/03 10:23:45;;;;;;;60.33;26.27;;;;;;;2.44;88.73;102274.13;4973635;28;20023;-72
2022/12/03 10:26:11;;;;;;;60.50;24.27;;;;;;;2.36;89.06;102276.28;4972656;28;20026;-73
2022/12/03 10:28:42;;;;;;;55.72;23.45;;;;;;;2.64;89.07;102275.00;4972108;28;20052;-73
2022/12/03 10:31:10;;;;;;;60.28;26.27;;;;;;;2.40;88.74;102261.84;4969254;28;20036;-73
2022/12/03 10:33:38;;;;;;;58.58;25.05;;;;;;;2.42;90.01;102276.00;4970947;28;20113;-73
2022/12/03 10:36:18;;;;;;;57.88;23.42;;;;;;;2.62;88.83;102271.53;4968960;28;20133;-73
2022/12/03 10:38:44;;;;;;;59.85;25.88;;;;;;;2.62;89.20;102274.22;4969910;28;20145;-73
2022/12/03 10:41:20;;;;;;;55.88;23.60;;;;;;;2.68;89.98;102271.25;4967909;28;20034;-73
2022/12/03 10:43:46;;;;;;;53.63;24.88;;;;;;;2.78;89.33;102277.00;4971176;28;20061;-73
2022/12/03 10:46:23;;;;;;;56.35;25.25;;;;;;;2.43;89.50;102267.06;4974440;28;20071;-71
2022/12/03 10:49:08;;;;;;;52.85;23.77;;;;;;;2.35;89.97;102263.88;4959684;28;20023;-72
2022/12/03 10:51:34;;;;;;;53.42;24.70;;;;;;;2.36;89.55;102254.91;4971904;28;20039;-74
2022/12/03 10:54:01;;;;;;;61.67;23.88;;;;;;;2.36;89.38;102254.06;4956129;28;20033;-73
2022/12/03 10:56:26;;;;;;;63.75;26.00;;;;;;;2.39;89.16;102264.59;4972230;28;20149;-74
2022/12/03 10:58:52;;;;;;;57.85;24.23;;;;;;;2.60;88.96;102260.03;4957861;28;20445;-71
2022/12/03 11:01:20;;;;;;;54.97;25.25;;;;;;;2.27;89.43;102255.31;4953731;28;20050;-73
2022/12/03 11:03:47;;;;;;;54.53;25.48;;;;;;;2.24;89.29;102251.94;4975665;28;20022;-72
2022/12/03 11:06:22;;;;;;;63.72;27.17;;;;;;;2.09;90.01;102256.19;4958036;28;20037;-74
2022/12/03 11:08:50;;;;;;;57.97;23.25;;;;;;;2.29;89.91;102252.59;4956066;28;20392;-74
2022/12/03 11:11:23;;;;;;;56.88;25.45;;;;;;;2.11;90.50;102243.63;4952409;28;20026;-74
2022/12/03 11:13:53;;;;;;;54.30;25.05;;;;;;;2.28;90.02;102241.06;4955161;28;20368;-71
2022/12/03 11:16:40;;;;;;;62.47;27.05;;;;;;;2.41;89.64;102247.56;4974963;28;20045;-73
2022/12/03 11:19:11;;;;;;;56.55;23.60;;;;;;;2.18;89.42;102245.94;4954222;28;20033;-74
2022/12/03 11:22:02;;;;;;;48.00;19.80;;;;;;;2.40;89.76;102235.09;4957365;28;20065;-72
2022/12/03 11:24:28;;;;;;;58.53;25.23;;;;;;;1.92;90.44;102237.38;4955262;28;20034;-72
2022/12/03 11:26:53;;;;;;;65.97;25.75;;;;;;;2.05;90.52;102227.88;4955258;28;20023;-73
2022/12/03 11:29:46;;;;;;;65.32;23.60;;;;;;;2.39;89.60;102228.03;4957940;28;20049;-73
2022/12/03 11:32:37;;;;;;;60.92;26.10;;;;;;;2.15;90.40;102218.47;4976651;28;20023;-74
2022/12/03 11:35:24;;;;;;;43.60;17.87;;;;;;;2.42;88.74;102219.88;4974046;28;20022;-72
2022/12/03 11:37:50;;;;;;;68.25;25.40;;;;;;;2.70;88.66;102215.88;4973276;28;20034;-72
2022/12/03 11:40:15;;;;;;;60.03;23.65;;;;;;;2.56;88.75;102218.34;4956781;28;20025;-72
2022/12/03 11:42:41;;;;;;;58.17;25.45;;;;;;;2.47;89.73;102213.44;4956972;28;20034;-74
2022/12/03 11:45:09;;;;;;;59.38;25.73;;;;;;;2.59;88.91;102215.53;4957632;28;20054;-74